createdAt,value
2022-09-25T00:02:51.173Z,53.30
2022-09-25T00:06:05.857Z,49.80
2022-09-25T00:09:17.767Z,52.30
2022-09-25T00:12:25.142Z,56.60
2022-09-25T00:15:49.283Z,57.60
2022-09-25T00:19:26.545Z,53.20
2022-09-25T00:22:35.477Z,49.90
2022-09-25T00:25:56.010Z,55.10
2022-09-25T00:29:23.481Z,51.10
2022-09-25T00:32:59.911Z,52.10
2022-09-25T00:35:53.441Z,49.00
2022-09-25T00:39:33.696Z,53.80
2022-09-25T00:42:46.363Z,55.40
2022-09-25T00:46:33.948Z,52.50
2022-09-25T00:49:37.989Z,54.90
2022-09-25T00:53:07.467Z,57.20
2022-09-25T00:56:55.019Z,51.30
2022-09-25T01:00:42.731Z,49.40
2022-09-25T01:04:30.817Z,45.10
2022-09-25T01:07:49.886Z,45.30
2022-09-25T01:11:30.158Z,39.80
2022-09-25T01:14:57.429Z,36.90
2022-09-25T01:18:47.254Z,37.70
2022-09-25T01:22:17.152Z,41.60
2022-09-25T01:26:20.736Z,42.20
2022-09-25T01:30:01.471Z,40.60
2022-09-25T01:33:47.184Z,37.30
2022-09-25T01:37:06.834Z,36.70
2022-09-25T01:40:37.340Z,38.50
2022-09-25T01:43:15.542Z,36.00
2022-09-25T01:47:03.005Z,38.00
2022-09-25T01:50:20.188Z,40.80
2022-09-25T01:53:47.938Z,42.40
2022-09-25T01:56:51.045Z,41.80
2022-09-25T01:59:34.174Z,44.00
2022-09-25T02:02:42.635Z,47.30
2022-09-25T02:06:30.492Z,44.70
2022-09-25T02:10:05.368Z,42.40
2022-09-25T02:13:34.332Z,41.20
2022-09-25T02:17:08.053Z,41.80
2022-09-25T02:20:55.852Z,39.10
2022-09-25T02:24:42.026Z,37.30
2022-09-25T02:28:22.297Z,39.60
2022-09-25T02:31:59.847Z,41.90
2022-09-25T02:35:27.447Z,40.40
2022-09-25T02:38:19.603Z,40.20
2022-09-25T02:42:05.103Z,38.50
2022-09-25T02:45:57.370Z,38.80
2022-09-25T02:49:39.907Z,39.50
2022-09-25T02:52:56.380Z,38.80
2022-09-25T02:56:15.053Z,40.90
2022-09-25T02:59:52.173Z,39.30
2022-09-25T03:03:39.790Z,41.50
2022-09-25T03:07:08.228Z,44.30
2022-09-25T03:10:46.542Z,44.30
2022-09-25T03:13:38.476Z,47.10
2022-09-25T03:17:10.054Z,48.90
2022-09-25T03:20:04.648Z,47.60
2022-09-25T03:23:54.733Z,46.30
2022-09-25T03:27:24.211Z,38.60
2022-09-25T03:30:36.222Z,31.10
2022-09-25T03:34:03.983Z,30.30
2022-09-25T03:37:51.425Z,29.60
2022-09-25T03:41:23.176Z,28.20
2022-09-25T03:44:33.379Z,29.00
2022-09-25T03:48:14.586Z,30.00
2022-09-25T03:51:45.496Z,31.40
2022-09-25T03:55:23.474Z,27.80
2022-09-25T03:58:43.841Z,32.60
2022-09-25T04:02:31.814Z,35.80
2022-09-25T04:06:19.425Z,39.20
2022-09-25T04:10:06.916Z,37.50
2022-09-25T04:13:21.613Z,40.90
2022-09-25T04:17:00.937Z,43.60
2022-09-25T04:19:57.016Z,43.90
2022-09-25T04:23:44.221Z,36.90
2022-09-25T04:26:38.869Z,36.40
2022-09-25T04:30:10.254Z,38.40
2022-09-25T04:33:47.416Z,36.10
2022-09-25T04:37:17.933Z,38.10
2022-09-25T04:40:00.827Z,38.10
2022-09-25T04:43:11.473Z,39.60
2022-09-25T04:46:11.757Z,38.20
2022-09-25T04:48:58.651Z,37.50
2022-09-25T04:52:02.623Z,38.90
2022-09-25T04:55:05.532Z,39.10
2022-09-25T04:58:56.530Z,39.50
2022-09-25T05:02:21.284Z,38.80
2022-09-25T05:05:48.959Z,35.20
2022-09-25T05:09:06.644Z,36.50
2022-09-25T05:12:26.773Z,37.30
2022-09-25T05:15:54.490Z,36.20
2022-09-25T05:19:02.461Z,37.10
2022-09-25T05:22:49.983Z,38.80
2022-09-25T05:26:37.462Z,37.60
2022-09-25T05:29:54.844Z,38.30
2022-09-25T05:33:18.248Z,38.30
2022-09-25T05:37:05.773Z,38.50
2022-09-25T05:40:37.175Z,40.40
2022-09-25T05:44:03.284Z,41.30
2022-09-25T05:47:15.465Z,41.90
2022-09-25T05:50:42.591Z,38.70
2022-09-25T05:54:12.891Z,42.40
2022-09-25T05:58:00.374Z,52.40
2022-09-25T06:01:48.260Z,53.00
2022-09-25T06:05:36.123Z,48.60
2022-09-25T06:09:17.614Z,47.20
2022-09-25T06:12:48.187Z,46.10
2022-09-25T06:15:59.124Z,42.50
2022-09-25T06:19:46.881Z,46.30
2022-09-25T06:23:23.430Z,46.50
2022-09-25T06:26:53.372Z,40.70
2022-09-25T06:30:15.393Z,42.10
2022-09-25T06:33:26.667Z,44.50
2022-09-25T06:37:09.155Z,43.90
2022-09-25T06:40:42.099Z,43.60
2022-09-25T06:44:29.983Z,43.60
2022-09-25T06:47:44.181Z,45.50
2022-09-25T06:51:32.046Z,48.80
2022-09-25T06:55:12.886Z,45.00
2022-09-25T06:59:00.613Z,44.10
2022-09-25T07:02:46.854Z,44.00
2022-09-25T07:06:15.078Z,38.10
2022-09-25T07:10:02.834Z,38.30
2022-09-25T07:13:32.887Z,36.40
2022-09-25T07:17:01.877Z,35.20
2022-09-25T07:20:29.645Z,33.70
2022-09-25T07:24:17.900Z,36.00
2022-09-25T07:28:06.189Z,34.50
2022-09-25T07:31:56.904Z,32.80
2022-09-25T07:35:42.526Z,30.20
2022-09-25T07:39:30.874Z,30.90
2022-09-25T07:43:18.540Z,30.70
2022-09-25T07:46:53.522Z,30.60
2022-09-25T07:50:42.191Z,29.50
2022-09-25T07:54:30.198Z,33.60
2022-09-25T07:58:19.107Z,33.60
2022-09-25T08:02:07.720Z,29.70
2022-09-25T08:05:55.491Z,27.70
2022-09-25T08:09:43.445Z,28.40
2022-09-25T08:13:11.824Z,25.00
2022-09-25T08:17:03.988Z,26.00
2022-09-25T08:20:40.037Z,24.70
2022-09-25T08:24:10.803Z,21.80
2022-09-25T08:27:41.182Z,19.70
2022-09-25T08:31:10.594Z,20.00
2022-09-25T08:34:40.907Z,21.50
2022-09-25T08:38:18.566Z,20.30
2022-09-25T08:41:56.006Z,18.80
2022-09-25T08:45:45.220Z,18.90
2022-09-25T08:49:35.465Z,19.10
2022-09-25T08:53:23.829Z,15.80
2022-09-25T08:57:03.371Z,14.20
2022-09-25T09:00:44.126Z,16.90
2022-09-25T09:04:26.420Z,16.20
2022-09-25T09:08:15.509Z,17.10
2022-09-25T09:11:53.390Z,19.00
2022-09-25T09:15:47.628Z,19.10
2022-09-25T09:19:02.042Z,19.40
2022-09-25T09:23:03.048Z,18.70
2022-09-25T09:26:55.898Z,18.00
2022-09-25T09:30:57.798Z,16.80
2022-09-25T09:35:05.784Z,16.80
2022-09-25T09:39:07.459Z,15.60
2022-09-25T09:42:36.643Z,16.00
2022-09-25T09:46:26.386Z,12.60
2022-09-25T09:50:22.598Z,12.80
2022-09-25T09:53:47.202Z,14.30
2022-09-25T09:57:36.181Z,14.60
2022-09-25T10:01:29.003Z,14.20
2022-09-25T10:05:10.036Z,15.50
2022-09-25T10:08:58.911Z,14.20
2022-09-25T10:12:47.290Z,13.40
2022-09-25T10:16:30.620Z,12.80
2022-09-25T10:20:28.326Z,11.30
2022-09-25T10:24:28.076Z,15.70
2022-09-25T10:28:25.149Z,14.10
2022-09-25T10:32:21.356Z,15.10
2022-09-25T10:36:08.935Z,13.10
2022-09-25T10:40:08.825Z,12.90
2022-09-25T10:44:02.655Z,14.10
2022-09-25T10:48:00.135Z,11.90
2022-09-25T10:51:48.233Z,12.60
2022-09-25T10:55:57.396Z,13.00
2022-09-25T10:59:57.719Z,12.20
2022-09-25T11:03:45.906Z,8.40
2022-09-25T11:07:16.928Z,11.30
2022-09-25T11:10:21.249Z,11.10
2022-09-25T11:13:36.439Z,11.00
2022-09-25T11:17:23.414Z,7.70
2022-09-25T11:21:20.867Z,7.10
2022-09-25T11:25:32.978Z,10.30
2022-09-25T11:29:27.033Z,10.20
2022-09-25T11:33:30.291Z,11.40
2022-09-25T11:37:00.743Z,5.90
2022-09-25T11:41:02.714Z,5.60
2022-09-25T11:45:11.345Z,6.80
2022-09-25T11:48:57.893Z,6.50
2022-09-25T11:52:45.944Z,6.20
2022-09-25T11:56:49.559Z,6.40
2022-09-25T12:00:56.546Z,6.80
2022-09-25T12:04:48.991Z,5.70
2022-09-25T12:08:49.473Z,6.10
2022-09-25T12:11:46.098Z,5.10
2022-09-25T12:14:56.436Z,5.40
2022-09-25T12:18:07.151Z,5.00
2022-09-25T12:20:34.048Z,5.60
2022-09-25T12:24:33.124Z,5.10
2022-09-25T12:28:32.884Z,5.40
2022-09-25T12:32:29.465Z,4.90
2022-09-25T12:36:25.217Z,4.30
2022-09-25T12:40:16.494Z,5.40
2022-09-25T12:44:04.626Z,5.10
2022-09-25T12:47:55.054Z,4.90
2022-09-25T12:51:42.874Z,4.90
2022-09-25T12:55:33.395Z,4.40
2022-09-25T12:59:36.330Z,4.60
2022-09-25T13:03:42.967Z,4.70
2022-09-25T13:07:52.041Z,4.70
2022-09-25T13:11:39.925Z,4.80
2022-09-25T13:15:33.339Z,4.10
2022-09-25T13:19:20.371Z,4.80
2022-09-25T13:23:08.123Z,4.60
2022-09-25T13:26:58.423Z,5.00
2022-09-25T13:30:47.345Z,4.50
2022-09-25T13:34:41.316Z,4.90
2022-09-25T13:38:24.707Z,4.30
2022-09-25T13:42:12.289Z,4.60
2022-09-25T13:45:48.787Z,4.70
2022-09-25T13:49:36.738Z,4.80
2022-09-25T13:53:41.976Z,5.60
2022-09-25T13:57:29.705Z,5.70
2022-09-25T14:01:17.576Z,6.50
2022-09-25T14:05:08.969Z,5.30
2022-09-25T14:08:50.353Z,5.40
2022-09-25T14:12:43.876Z,5.50
2022-09-25T14:16:34.652Z,5.80
2022-09-25T14:20:31.975Z,5.60
2022-09-25T14:24:29.534Z,6.40
2022-09-25T14:28:23.026Z,6.30
2022-09-25T14:32:43.179Z,5.70
2022-09-25T14:36:32.593Z,6.70
2022-09-25T14:40:44.344Z,5.90
2022-09-25T14:44:56.025Z,6.60
2022-09-25T14:48:46.913Z,6.70
2022-09-25T14:52:40.961Z,5.50
2022-09-25T14:56:21.893Z,6.50
2022-09-25T15:00:08.662Z,6.00
2022-09-25T15:03:56.221Z,5.90
2022-09-25T15:07:56.043Z,6.20
2022-09-25T15:11:43.895Z,5.40
2022-09-25T15:15:37.875Z,6.30
2022-09-25T15:19:05.407Z,5.60
2022-09-25T15:22:53.635Z,5.70
2022-09-25T15:26:44.744Z,6.30
2022-09-25T15:30:32.525Z,5.60
2022-09-25T15:34:20.140Z,6.20
2022-09-25T15:38:06.584Z,5.60
2022-09-25T15:41:57.245Z,5.40
2022-09-25T15:45:45.497Z,6.00
2022-09-25T15:49:36.489Z,5.90
2022-09-25T15:53:24.148Z,6.00
2022-09-25T15:56:56.604Z,6.40
2022-09-25T16:00:46.140Z,6.50
2022-09-25T16:04:36.560Z,6.20
2022-09-25T16:08:29.176Z,7.20
2022-09-25T16:12:03.373Z,9.90
2022-09-25T16:16:06.034Z,9.10
2022-09-25T16:20:02.438Z,8.40
2022-09-25T16:23:58.913Z,5.30
2022-09-25T16:27:27.093Z,7.20
2022-09-25T16:31:07.569Z,8.40
2022-09-25T16:34:55.554Z,7.50
2022-09-25T16:38:43.702Z,7.30
2022-09-25T16:42:40.036Z,8.70
2022-09-25T16:46:37.738Z,9.90
2022-09-25T16:50:25.854Z,12.50
2022-09-25T16:54:13.584Z,15.10
2022-09-25T16:57:45.898Z,18.80
2022-09-25T17:01:28.214Z,17.00
2022-09-25T17:05:11.577Z,24.20
2022-09-25T17:08:54.989Z,24.10
2022-09-25T17:12:24.243Z,23.60
2022-09-25T17:16:17.910Z,18.30
2022-09-25T17:19:42.354Z,23.60
2022-09-25T17:23:23.736Z,22.70
2022-09-25T17:27:11.543Z,23.30
2022-09-25T17:30:28.211Z,21.80
2022-09-25T17:34:10.346Z,19.30
2022-09-25T17:37:31.025Z,18.90
2022-09-25T17:41:14.486Z,21.90
2022-09-25T17:45:02.496Z,24.80
2022-09-25T17:48:19.983Z,25.10
2022-09-25T17:51:56.731Z,21.70
2022-09-25T17:55:35.999Z,23.10
2022-09-25T17:59:24.464Z,19.80
2022-09-25T18:03:01.860Z,19.70
2022-09-25T18:06:50.282Z,19.30
2022-09-25T18:10:24.559Z,25.80
2022-09-25T18:14:13.867Z,32.10
2022-09-25T18:17:55.468Z,32.70
2022-09-25T18:21:31.953Z,30.20
2022-09-25T18:25:07.860Z,31.70
2022-09-25T18:28:09.624Z,35.10
2022-09-25T18:31:21.823Z,34.00
2022-09-25T18:34:33.834Z,35.60
2022-09-25T18:37:58.710Z,40.70
2022-09-25T18:41:20.339Z,34.40
2022-09-25T18:44:22.582Z,33.90
2022-09-25T18:48:11.154Z,29.90
2022-09-25T18:51:39.644Z,27.60
2022-09-25T18:54:59.668Z,28.80
2022-09-25T18:58:47.943Z,27.30
2022-09-25T19:02:36.583Z,39.30
2022-09-25T19:06:15.984Z,64.50
2022-09-25T19:10:03.798Z,74.50
2022-09-25T19:13:01.181Z,108.60
2022-09-25T19:16:49.626Z,94.30
2022-09-25T19:20:34.421Z,103.30
2022-09-25T19:24:02.405Z,68.10
2022-09-25T19:27:26.159Z,65.30
2022-09-25T19:31:15.422Z,62.20
2022-09-25T19:34:56.350Z,53.00
2022-09-25T19:38:45.371Z,44.50
2022-09-25T19:42:15.395Z,48.90
2022-09-25T19:46:03.988Z,64.50
2022-09-25T19:49:53.919Z,63.60
2022-09-25T19:53:20.515Z,79.10
2022-09-25T19:57:08.314Z,88.70
2022-09-25T20:00:56.104Z,81.80
2022-09-25T20:04:26.653Z,79.30
2022-09-25T20:08:05.923Z,80.80
2022-09-25T20:11:07.252Z,80.60
2022-09-25T20:14:35.631Z,78.20
2022-09-25T20:18:22.618Z,73.00
2022-09-25T20:22:10.428Z,64.60
2022-09-25T20:25:58.013Z,51.30
2022-09-25T20:29:00.018Z,50.80
2022-09-25T20:32:47.878Z,48.20
2022-09-25T20:36:36.402Z,44.60
2022-09-25T20:40:04.175Z,45.90
2022-09-25T20:43:51.981Z,40.40
2022-09-25T20:47:46.068Z,39.60
2022-09-25T20:51:34.717Z,49.00
2022-09-25T20:54:52.184Z,47.30
2022-09-25T20:58:10.460Z,39.20
2022-09-25T21:01:48.464Z,40.00
2022-09-25T21:04:59.544Z,39.40
2022-09-25T21:08:37.253Z,37.00
2022-09-25T21:12:10.107Z,34.70
2022-09-25T21:15:58.089Z,31.70
2022-09-25T21:19:45.840Z,32.70
2022-09-25T21:23:34.194Z,34.40
2022-09-25T21:27:15.772Z,34.80
2022-09-25T21:31:04.228Z,33.40
2022-09-25T21:34:35.207Z,30.70
2022-09-25T21:38:23.093Z,35.60
2022-09-25T21:42:11.218Z,33.60
2022-09-25T21:45:56.574Z,33.50
2022-09-25T21:49:53.600Z,34.30
2022-09-25T21:53:41.299Z,34.10
2022-09-25T21:57:28.853Z,29.60
2022-09-25T22:01:17.003Z,31.90
2022-09-25T22:05:04.558Z,32.90
2022-09-25T22:08:31.098Z,33.00
2022-09-25T22:12:18.670Z,32.40
2022-09-25T22:16:06.384Z,30.00
2022-09-25T22:19:56.419Z,29.20
2022-09-25T22:23:23.872Z,29.60
2022-09-25T22:27:03.706Z,29.60
2022-09-25T22:30:30.747Z,30.00
2022-09-25T22:34:18.250Z,31.50
2022-09-25T22:38:05.675Z,30.30
2022-09-25T22:41:43.507Z,28.20
2022-09-25T22:44:53.878Z,29.50
2022-09-25T22:48:01.212Z,29.40
2022-09-25T22:52:00.783Z,26.80
2022-09-25T22:55:48.384Z,29.10
2022-09-25T22:59:15.952Z,27.40
2022-09-25T23:02:55.895Z,30.00
2022-09-25T23:06:43.378Z,27.40
2022-09-25T23:10:10.754Z,29.90
2022-09-25T23:13:41.345Z,26.40
2022-09-25T23:17:18.114Z,26.10
2022-09-25T23:21:05.902Z,25.90
2022-09-25T23:24:44.195Z,26.60
2022-09-25T23:28:31.707Z,22.70
2022-09-25T23:31:59.599Z,22.40
2022-09-25T23:35:38.476Z,23.00
2022-09-25T23:38:56.349Z,23.10
2022-09-25T23:42:44.053Z,23.10
2022-09-25T23:46:31.658Z,22.70
2022-09-25T23:50:19.227Z,23.40
2022-09-25T23:53:56.841Z,22.50
2022-09-25T23:57:14.239Z,23.10
